Time;durP1;ratioP1;P1;durP2;ratioP2;P2;SDS_P1;SDS_P2;PMS_P1;PMS_P2;Temp;Humidity;BMP_temperature;BMP_pressure;BME280_temperature;BME280_humidity;BME280_pressure;Samples;Min_cycle;Max_cycle;Signal;HPM_P1;HPM_P2
2021/07/05 00:02:09;;;;;;;3.67;1.33;;;;;;;21.02;64.25;100795.03;5034204;28;20038;-60
2021/07/05 00:04:42;;;;;;;2.30;1.20;;;;;;;21.01;64.15;100783.59;5032950;28;20091;-58
2021/07/05 00:07:11;;;;;;;3.92;1.30;;;;;;;21.01;64.09;100785.38;5032779;28;20030;-59
2021/07/05 00:09:38;;;;;;;2.03;1.10;;;;;;;21.00;64.15;100784.56;5032015;28;20380;-58
2021/07/05 00:12:09;;;;;;;2.05;1.20;;;;;;;21.00;64.27;100783.75;5031452;28;20029;-58
2021/07/05 00:14:38;;;;;;;4.40;1.13;;;;;;;21.00;64.30;100789.03;5032092;28;20033;-58
2021/07/05 00:17:04;;;;;;;2.13;1.13;;;;;;;20.99;64.05;100796.13;5031992;28;20033;-58
2021/07/05 00:19:29;;;;;;;3.45;1.08;;;;;;;20.99;64.23;100790.84;5030971;28;20029;-58
2021/07/05 00:21:54;;;;;;;2.38;1.13;;;;;;;20.97;64.00;100792.81;5032098;28;20028;-58
2021/07/05 00:24:20;;;;;;;2.83;1.10;;;;;;;20.96;64.12;100793.78;5031732;28;20022;-58
2021/07/05 00:26:46;;;;;;;2.67;1.27;;;;;;;20.96;64.09;100787.66;5031465;28;20037;-59
2021/07/05 00:29:14;;;;;;;2.03;0.95;;;;;;;20.97;63.99;100790.16;5032248;28;20060;-58
2021/07/05 00:31:40;;;;;;;1.90;1.05;;;;;;;20.95;63.67;100784.19;5031145;28;20025;-58
2021/07/05 00:34:05;;;;;;;1.60;1.00;;;;;;;20.95;63.71;100770.06;5031634;28;20052;-59
2021/07/05 00:36:31;;;;;;;2.20;1.05;;;;;;;20.95;63.94;100772.72;5031522;28;20037;-59
2021/07/05 00:38:59;;;;;;;1.65;1.00;;;;;;;20.94;64.03;100774.53;5035048;28;20049;-58
2021/07/05 00:41:24;;;;;;;2.42;1.10;;;;;;;20.94;64.05;100763.13;5035277;28;20105;-58
2021/07/05 00:43:52;;;;;;;2.25;1.00;;;;;;;20.94;63.93;100768.41;5035531;28;20444;-58
2021/07/05 00:46:17;;;;;;;2.72;1.20;;;;;;;20.93;63.77;100772.88;5034477;28;20068;-58
2021/07/05 00:48:43;;;;;;;2.00;1.00;;;;;;;20.92;63.63;100775.66;5035696;28;20186;-59
2021/07/05 00:51:08;;;;;;;2.03;1.00;;;;;;;20.92;63.91;100776.50;5035748;28;20519;-59
2021/07/05 00:53:34;;;;;;;1.90;0.90;;;;;;;20.92;63.75;100775.66;5034579;28;20309;-59
2021/07/05 00:56:00;;;;;;;2.05;1.05;;;;;;;20.90;63.71;100777.63;5035397;28;20465;-59
2021/07/05 00:58:25;;;;;;;1.73;1.00;;;;;;;20.91;63.76;100780.13;5035058;28;20026;-58
2021/07/05 01:00:50;;;;;;;3.45;1.10;;;;;;;20.91;63.85;100779.31;5034454;28;20473;-58
2021/07/05 01:03:16;;;;;;;2.25;1.10;;;;;;;20.90;64.00;100782.94;5034963;28;20092;-58
2021/07/05 01:05:41;;;;;;;2.85;1.20;;;;;;;20.90;63.75;100782.94;5035245;28;20072;-58
2021/07/05 01:08:07;;;;;;;1.63;0.90;;;;;;;20.89;63.60;100787.41;5034397;28;20056;-58
2021/07/05 01:10:32;;;;;;;2.15;0.90;;;;;;;20.89;63.52;100791.88;5034725;28;20385;-58
2021/07/05 01:12:58;;;;;;;1.88;1.10;;;;;;;20.89;63.32;100789.22;5035170;28;20033;-58
2021/07/05 01:15:30;;;;;;;3.00;0.93;;;;;;;20.88;63.68;100791.00;5033671;28;20104;-58
2021/07/05 01:17:57;;;;;;;2.13;1.00;;;;;;;20.82;63.61;100784.50;5035319;28;20404;-58
2021/07/05 01:20:25;;;;;;;2.00;1.10;;;;;;;20.88;63.57;100792.84;5034784;28;20025;-59
2021/07/05 01:22:51;;;;;;;2.40;1.00;;;;;;;20.84;63.50;100785.19;5034203;28;20397;-58
2021/07/05 01:25:21;;;;;;;1.75;1.10;;;;;;;20.88;63.54;100792.84;5034664;28;20621;-59
2021/07/05 01:27:47;;;;;;;2.38;1.00;;;;;;;20.87;63.59;100784.06;5034314;28;20041;-58
2021/07/05 01:30:14;;;;;;;2.70;1.10;;;;;;;20.84;63.60;100776.41;5034420;28;20060;-58
2021/07/05 01:32:39;;;;;;;1.80;0.90;;;;;;;20.86;63.44;100784.22;5034831;28;20389;-57
2021/07/05 01:35:12;;;;;;;1.70;1.00;;;;;;;20.86;63.57;100777.09;5033574;28;20052;-57
2021/07/05 01:37:38;;;;;;;2.05;1.00;;;;;;;20.86;63.41;100787.69;5034574;28;20029;-58
2021/07/05 01:40:19;;;;;;;1.83;0.90;;;;;;;20.86;63.54;100790.34;5034567;28;20075;-58
2021/07/05 01:43:04;;;;;;;2.80;1.33;;;;;;;20.84;63.50;100785.19;5033616;28;20044;-58
2021/07/05 01:45:32;;;;;;;3.40;0.88;;;;;;;20.85;63.40;100793.94;5033772;28;20045;-57
2021/07/05 01:47:58;;;;;;;2.25;1.05;;;;;;;20.86;63.49;100802.75;5034363;28;20033;-58
2021/07/05 01:50:25;;;;;;;2.00;0.98;;;;;;;20.83;63.51;100802.03;5032567;28;20538;-57
2021/07/05 01:52:53;;;;;;;1.83;1.00;;;;;;;20.84;63.39;100794.94;5034177;28;20109;-57
2021/07/05 01:55:32;;;;;;;2.22;1.42;;;;;;;20.82;63.41;100796.88;5033850;28;20504;-58
2021/07/05 01:58:00;;;;;;;2.47;1.05;;;;;;;20.83;63.52;100798.56;5033566;28;20072;-59
2021/07/05 02:00:27;;;;;;;1.60;0.90;;;;;;;20.83;63.34;100799.38;5033903;28;20128;-58
2021/07/05 02:02:53;;;;;;;1.33;0.90;;;;;;;20.83;63.47;100798.56;5034201;28;20446;-58
2021/07/05 02:05:19;;;;;;;1.83;0.90;;;;;;;20.82;63.42;100792.44;5033087;28;20037;-58
2021/07/05 02:07:45;;;;;;;1.73;0.90;;;;;;;20.80;63.51;100794.38;5034057;28;20029;-58
2021/07/05 02:10:14;;;;;;;1.70;0.82;;;;;;;20.82;63.31;100794.22;5033155;28;20469;-57
2021/07/05 02:12:40;;;;;;;1.85;0.90;;;;;;;20.81;63.58;100790.75;5033746;28;20044;-59
2021/07/05 02:15:09;;;;;;;1.60;0.75;;;;;;;20.82;63.38;100794.22;5033803;28;20025;-58
2021/07/05 02:17:35;;;;;;;2.22;1.05;;;;;;;20.81;63.59;100796.06;5032712;28;20064;-58
2021/07/05 02:20:03;;;;;;;2.50;1.10;;;;;;;20.81;63.46;100806.66;5033694;28;20025;-57
2021/07/05 02:22:28;;;;;;;2.13;1.05;;;;;;;20.80;63.48;100804.16;5033554;28;20120;-57
2021/07/05 02:24:53;;;;;;;1.65;0.80;;;;;;;20.81;63.33;100811.13;5032964;28;20104;-58
2021/07/05 02:27:19;;;;;;;1.97;0.90;;;;;;;20.78;63.34;100801.63;5033365;28;20469;-58
2021/07/05 02:29:50;;;;;;;2.67;1.10;;;;;;;20.80;63.38;100807.63;5033478;28;20369;-57
2021/07/05 02:32:15;;;;;;;2.95;1.17;;;;;;;20.79;63.36;100803.31;5032442;28;20072;-58
2021/07/05 02:34:40;;;;;;;2.90;0.90;;;;;;;20.79;63.24;100799.81;5033063;28;20073;-57
2021/07/05 02:37:08;;;;;;;2.70;1.10;;;;;;;20.78;63.07;100804.28;5033413;28;20619;-58
2021/07/05 02:39:34;;;;;;;2.60;1.00;;;;;;;20.78;63.10;100809.59;5032372;28;20351;-59
2021/07/05 02:41:59;;;;;;;4.05;1.10;;;;;;;20.78;63.17;100809.59;5033269;28;20021;-57
2021/07/05 02:44:27;;;;;;;2.70;1.02;;;;;;;20.78;63.31;100812.22;5032850;28;20029;-59
2021/07/05 02:46:52;;;;;;;1.63;0.90;;;;;;;20.79;63.16;100823.66;5032340;28;20450;-58
2021/07/05 02:49:18;;;;;;;1.80;0.90;;;;;;;20.78;63.24;100817.53;5032686;28;20025;-57
2021/07/05 02:51:46;;;;;;;2.03;0.90;;;;;;;20.77;63.05;100817.66;5031876;28;20108;-58
2021/07/05 02:54:11;;;;;;;1.58;0.90;;;;;;;20.77;63.24;100826.44;5032408;28;20025;-58
2021/07/05 02:56:36;;;;;;;2.20;1.20;;;;;;;20.77;63.14;100813.19;5032783;28;20037;-59
2021/07/05 02:59:02;;;;;;;2.60;0.88;;;;;;;20.76;63.04;100805.41;5032780;28;20420;-59
2021/07/05 03:01:30;;;;;;;2.63;1.10;;;;;;;20.77;63.05;100785.88;5031850;28;20033;-58
2021/07/05 03:03:56;;;;;;;2.17;1.08;;;;;;;20.75;63.40;100796.63;5032748;28;20018;-58
2021/07/05 03:06:22;;;;;;;2.53;1.13;;;;;;;20.76;62.99;100803.59;5031900;28;20414;-59
2021/07/05 03:08:47;;;;;;;3.53;1.20;;;;;;;20.76;62.93;100805.41;5032930;28;20362;-59
2021/07/05 03:11:13;;;;;;;2.70;1.13;;;;;;;20.76;63.13;100808.91;5032764;28;20531;-59
2021/07/05 03:13:38;;;;;;;2.38;1.05;;;;;;;20.76;62.98;100800.09;5031454;28;20026;-57
2021/07/05 03:16:03;;;;;;;2.92;0.98;;;;;;;20.76;63.11;100808.03;5032482;28;20088;-57
2021/07/05 03:18:29;;;;;;;2.13;0.90;;;;;;;20.75;63.00;100806.38;5032130;28;20079;-58
2021/07/05 03:20:54;;;;;;;2.20;1.00;;;;;;;20.74;62.88;100802.06;5031708;28;20025;-58
2021/07/05 03:23:21;;;;;;;2.05;1.08;;;;;;;20.75;62.81;100801.91;5032333;28;20025;-58
2021/07/05 03:25:47;;;;;;;2.45;1.00;;;;;;;20.73;62.90;100795.09;5032563;28;20397;-57
2021/07/05 03:28:17;;;;;;;1.88;1.00;;;;;;;20.74;62.86;100807.34;5031707;28;20071;-58
2021/07/05 03:30:44;;;;;;;2.55;1.13;;;;;;;20.75;62.93;100809.03;5032579;28;20021;-59
2021/07/05 03:33:10;;;;;;;2.42;0.98;;;;;;;20.74;62.80;100808.19;5032113;28;20025;-58
2021/07/05 03:35:36;;;;;;;2.58;1.10;;;;;;;20.73;63.01;100809.19;5031420;28;20182;-58
2021/07/05 03:38:03;;;;;;;3.42;1.10;;;;;;;20.73;62.87;100814.47;5032303;28;20424;-58
2021/07/05 03:40:31;;;;;;;2.80;1.10;;;;;;;20.73;62.81;100808.31;5031879;28;20018;-58
2021/07/05 03:42:58;;;;;;;3.15;1.10;;;;;;;20.72;62.75;100812.78;5031573;28;20022;-58
2021/07/05 03:45:26;;;;;;;3.53;1.05;;;;;;;20.72;62.73;100799.56;5031902;28;20080;-57
2021/07/05 03:47:52;;;;;;;2.67;1.10;;;;;;;20.73;62.80;100800.38;5032128;28;20029;-58
2021/07/05 03:50:19;;;;;;;2.40;0.90;;;;;;;20.73;62.96;100808.31;5031174;28;20029;-57
2021/07/05 03:52:45;;;;;;;1.88;1.00;;;;;;;20.72;62.63;100799.56;5032221;28;20096;-58
2021/07/05 03:55:12;;;;;;;3.67;1.13;;;;;;;20.70;62.67;100798.06;5032062;28;20025;-58
2021/07/05 03:57:38;;;;;;;2.45;1.27;;;;;;;20.68;62.48;100792.03;5031049;28;20035;-58
2021/07/05 04:00:07;;;;;;;2.58;1.00;;;;;;;20.71;62.67;100813.78;5031949;28;20017;-58
2021/07/05 04:02:33;;;;;;;2.58;1.20;;;;;;;20.70;62.54;100809.47;5031089;28;20067;-58
2021/07/05 04:04:58;;;;;;;2.28;1.13;;;;;;;20.71;62.55;100810.28;5032156;28;20025;-59
2021/07/05 04:07:24;;;;;;;2.90;1.23;;;;;;;20.69;62.59;100804.31;5031475;28;20021;-60
2021/07/05 04:09:49;;;;;;;2.45;1.10;;;;;;;20.69;62.42;100802.50;5031389;28;20271;-58
2021/07/05 04:12:19;;;;;;;2.63;1.15;;;;;;;20.69;62.43;100796.38;5032664;28;20028;-58
2021/07/05 04:14:45;;;;;;;2.67;1.00;;;;;;;20.70;62.48;100800.69;5035904;28;20057;-58
2021/07/05 04:17:10;;;;;;;2.95;1.20;;;;;;;20.69;62.52;100807.78;5035145;28;20122;-59
2021/07/05 04:19:35;;;;;;;3.97;1.38;;;;;;;20.68;62.50;100811.44;5035800;28;20022;-58
2021/07/05 04:22:03;;;;;;;2.88;1.25;;;;;;;20.68;62.46;100805.28;5035498;28;20456;-59
2021/07/05 04:24:28;;;;;;;3.17;1.48;;;;;;;20.68;62.37;100808.78;5034535;28;20056;-58
2021/07/05 04:26:54;;;;;;;2.87;1.30;;;;;;;20.67;62.46;100804.44;5035478;28;20422;-58
2021/07/05 04:29:19;;;;;;;3.08;1.20;;;;;;;20.68;62.34;100798.19;5034989;28;20271;-58
2021/07/05 04:31:45;;;;;;;2.80;1.00;;;;;;;20.67;62.30;100793.03;5034925;28;20052;-58
2021/07/05 04:34:10;;;;;;;2.20;1.08;;;;;;;20.67;62.36;100811.56;5035378;28;20119;-58
2021/07/05 04:36:38;;;;;;;3.35;1.00;;;;;;;20.65;62.55;100807.25;5035142;28;20025;-58
2021/07/05 04:39:05;;;;;;;2.60;1.00;;;;;;;20.66;62.31;100810.72;5034739;28;20377;-58
2021/07/05 04:41:30;;;;;;;3.00;1.40;;;;;;;20.67;62.37;100815.03;5034991;28;20075;-59
2021/07/05 04:43:56;;;;;;;3.83;1.02;;;;;;;20.65;62.31;100807.25;5035055;28;20029;-60
2021/07/05 04:46:23;;;;;;;3.15;1.33;;;;;;;20.66;62.18;100805.41;5034457;28;20457;-59
2021/07/05 04:48:49;;;;;;;2.70;1.30;;;;;;;20.65;62.17;100796.66;5035090;28;20025;-59
2021/07/05 04:51:15;;;;;;;2.35;1.15;;;;;;;20.65;62.31;100801.94;5034925;28;20025;-58
2021/07/05 04:53:40;;;;;;;3.38;1.20;;;;;;;20.66;62.17;100808.06;5034398;28;20057;-59
2021/07/05 04:56:05;;;;;;;2.90;1.10;;;;;;;20.64;62.13;100802.91;5034719;28;20063;-58
2021/07/05 04:58:31;;;;;;;3.15;1.20;;;;;;;20.63;62.46;100806.53;5034682;28;20271;-58
2021/07/05 05:00:56;;;;;;;2.90;1.00;;;;;;;20.65;62.24;100809.06;5034402;28;20030;-59
2021/07/05 05:03:22;;;;;;;4.10;1.40;;;;;;;20.63;62.27;100806.53;5034499;28;20021;-59
2021/07/05 05:05:47;;;;;;;2.58;1.20;;;;;;;20.64;62.13;100800.25;5034867;28;20037;-58
2021/07/05 05:08:13;;;;;;;2.83;1.10;;;;;;;20.64;62.13;100791.50;5034398;28;20017;-58
2021/07/05 05:10:40;;;;;;;2.42;1.35;;;;;;;20.61;62.18;100781.97;5034374;28;20104;-59
2021/07/05 05:13:06;;;;;;;3.45;1.50;;;;;;;20.63;62.41;100784.50;5033958;28;20033;-58
2021/07/05 05:15:32;;;;;;;3.42;1.45;;;;;;;20.61;62.10;100783.81;5034438;28;20486;-59
2021/07/05 05:17:57;;;;;;;3.33;1.30;;;;;;;20.63;62.25;100784.50;5034703;28;20075;-59
2021/07/05 05:20:23;;;;;;;2.88;1.27;;;;;;;20.60;62.13;100790.91;5033663;28;20489;-59
2021/07/05 05:22:50;;;;;;;3.15;1.30;;;;;;;20.62;62.06;100788.97;5034557;28;20040;-59
2021/07/05 05:25:17;;;;;;;3.92;1.38;;;;;;;20.63;61.96;100800.38;5033092;28;20448;-58
2021/07/05 05:27:42;;;;;;;2.33;1.20;;;;;;;20.62;62.12;100788.97;5033655;28;20182;-58
2021/07/05 05:30:10;;;;;;;3.10;1.15;;;;;;;20.62;62.16;100790.78;5034283;28;20034;-59
2021/07/05 05:32:36;;;;;;;2.40;1.08;;;;;;;20.62;62.19;100790.78;5034015;28;20056;-59
2021/07/05 05:35:03;;;;;;;3.60;1.45;;;;;;;20.62;62.15;100791.59;5033321;28;20069;-59
2021/07/05 05:37:31;;;;;;;2.80;1.20;;;;;;;20.61;62.14;100787.28;5033922;28;20528;-59
2021/07/05 05:39:56;;;;;;;3.40;1.23;;;;;;;20.60;62.02;100790.91;5034210;28;20022;-59
2021/07/05 05:42:21;;;;;;;2.97;1.10;;;;;;;20.62;62.02;100796.06;5032967;28;20025;-58
2021/07/05 05:44:47;;;;;;;3.35;1.40;;;;;;;20.62;62.20;100788.13;5034201;28;20271;-59
2021/07/05 05:47:12;;;;;;;2.83;1.30;;;;;;;20.61;62.25;100795.22;5034094;28;20037;-58
2021/07/05 05:49:39;;;;;;;3.83;1.25;;;;;;;20.60;61.93;100785.63;5033012;28;20275;-59
2021/07/05 05:52:04;;;;;;;3.55;1.40;;;;;;;20.61;62.08;100787.28;5033965;28;20056;-59
2021/07/05 05:54:29;;;;;;;3.35;1.15;;;;;;;20.61;62.22;100778.50;5033749;28;20034;-59
2021/07/05 05:56:55;;;;;;;3.33;1.40;;;;;;;20.56;62.16;100768.34;5032896;28;20030;-57
2021/07/05 05:59:20;;;;;;;4.45;1.40;;;;;;;20.60;62.23;100774.19;5033716;28;20279;-58
2021/07/05 06:01:49;;;;;;;3.22;1.50;;;;;;;20.55;61.93;100760.53;5034064;28;20027;-58
2021/07/05 06:04:16;;;;;;;2.78;1.30;;;;;;;20.61;62.07;100783.81;5032698;28;20468;-58
2021/07/05 06:06:41;;;;;;;3.28;1.30;;;;;;;20.60;62.16;100777.69;5033810;28;20033;-58
2021/07/05 06:09:09;;;;;;;2.35;1.10;;;;;;;20.60;62.50;100779.47;5033270;28;20051;-59
2021/07/05 06:11:36;;;;;;;3.35;1.20;;;;;;;20.59;62.25;100773.34;5033268;28;20103;-58
2021/07/05 06:14:02;;;;;;;3.00;1.45;;;;;;;20.61;62.38;100783.81;5033898;28;20018;-58
2021/07/05 06:16:28;;;;;;;2.95;1.20;;;;;;;20.61;62.09;100783.81;5032499;28;20664;-58
2021/07/05 06:18:56;;;;;;;3.70;1.40;;;;;;;20.58;62.19;100776.97;5033668;28;20028;-59
2021/07/05 06:21:22;;;;;;;3.17;1.20;;;;;;;20.60;62.29;100777.69;5033288;28;20018;-58
2021/07/05 06:23:47;;;;;;;3.80;1.33;;;;;;;20.60;62.25;100776.81;5032626;28;20474;-59
2021/07/05 06:26:15;;;;;;;5.45;1.50;;;;;;;20.58;62.23;100774.31;5033555;28;20030;-58
2021/07/05 06:28:40;;;;;;;3.67;1.20;;;;;;;20.58;62.51;100776.16;5033693;28;20124;-59
2021/07/05 06:31:05;;;;;;;3.33;1.40;;;;;;;20.61;62.66;100783.81;5032708;28;20025;-59
2021/07/05 06:33:31;;;;;;;3.72;1.42;;;;;;;20.62;63.07;100793.44;5032843;28;20038;-58
2021/07/05 06:35:56;;;;;;;4.35;1.35;;;;;;;20.66;63.15;100805.41;5032934;28;20060;-59
2021/07/05 06:38:24;;;;;;;5.07;1.63;;;;;;;20.67;63.24;100790.38;5032366;28;20025;-59
2021/07/05 06:40:52;;;;;;;4.50;1.40;;;;;;;20.69;62.85;100799.84;5033323;28;20036;-59
2021/07/05 06:43:18;;;;;;;2.88;1.38;;;;;;;20.69;63.15;100793.72;5033194;28;20041;-59
2021/07/05 06:45:44;;;;;;;5.07;1.48;;;;;;;20.72;63.08;100796.09;5032630;28;20042;-58
2021/07/05 06:48:09;;;;;;;3.92;1.70;;;;;;;20.72;63.16;100798.72;5033351;28;20021;-59
2021/07/05 06:50:36;;;;;;;4.35;1.52;;;;;;;20.73;63.26;100792.44;5032880;28;20105;-58
2021/07/05 06:53:05;;;;;;;4.30;1.40;;;;;;;20.73;63.30;100801.25;5032422;28;20022;-58
2021/07/05 06:55:31;;;;;;;2.40;1.20;;;;;;;20.73;63.45;100800.38;5032787;28;20049;-58
2021/07/05 06:57:56;;;;;;;3.45;1.38;;;;;;;20.73;63.34;100801.25;5033026;28;20497;-58
2021/07/05 07:00:28;;;;;;;3.92;1.40;;;;;;;20.74;63.35;100802.06;5032013;28;20029;-59
2021/07/05 07:02:55;;;;;;;3.08;1.48;;;;;;;20.73;63.24;100800.38;5032826;28;20044;-59
2021/07/05 07:05:22;;;;;;;3.10;1.25;;;;;;;20.72;63.45;100802.22;5010172;28;20041;-58
2021/07/05 07:07:49;;;;;;;3.15;1.30;;;;;;;20.74;63.51;100808.19;5012453;28;20029;-58
2021/07/05 07:10:19;;;;;;;2.22;1.10;;;;;;;20.74;63.43;100810.00;5012643;28;20049;-57
2021/07/05 07:12:48;;;;;;;5.13;1.52;;;;;;;20.74;63.54;100802.06;5012417;28;20232;-59
2021/07/05 07:15:17;;;;;;;6.88;2.50;;;;;;;20.74;63.48;100810.00;5012772;28;20062;-58
2021/07/05 07:17:51;;;;;;;5.80;1.40;;;;;;;20.72;63.45;100804.84;5012928;28;20026;-59
2021/07/05 07:20:17;;;;;;;3.77;1.33;;;;;;;20.71;63.53;100805.00;5011902;28;20034;-59
2021/07/05 07:22:42;;;;;;;4.30;1.40;;;;;;;20.73;63.55;100809.19;5013253;28;20272;-59
2021/07/05 07:25:13;;;;;;;5.43;1.30;;;;;;;20.74;63.57;100805.53;5012836;28;20142;-60
2021/07/05 07:27:39;;;;;;;4.30;1.65;;;;;;;20.76;63.43;100808.03;5011774;28;20029;-58
2021/07/05 07:30:07;;;;;;;2.45;1.08;;;;;;;20.76;63.49;100823.94;5011209;28;20022;-57
2021/07/05 07:32:33;;;;;;;4.82;1.40;;;;;;;20.76;63.45;100824.78;5011912;28;20025;-59
2021/07/05 07:34:58;;;;;;;4.60;1.27;;;;;;;20.78;63.39;100837.88;5011694;28;20038;-58
2021/07/05 07:37:27;;;;;;;5.05;1.40;;;;;;;20.76;63.46;100831.88;5011965;28;20053;-57
2021/07/05 07:39:59;;;;;;;3.35;1.20;;;;;;;20.75;63.49;100832.88;5012635;28;20026;-58
2021/07/05 07:42:24;;;;;;;4.13;1.30;;;;;;;20.76;63.55;100842.47;5011735;28;20022;-57
2021/07/05 07:44:50;;;;;;;4.68;1.63;;;;;;;20.77;63.36;100839.69;5012834;28;20018;-57
2021/07/05 07:47:15;;;;;;;5.32;1.38;;;;;;;20.80;63.43;100846.53;5011850;28;20052;-60
2021/07/05 07:49:40;;;;;;;3.58;1.55;;;;;;;20.81;63.62;100842.91;5012072;28;20402;-59
2021/07/05 07:52:06;;;;;;;5.47;2.00;;;;;;;20.83;63.76;100844.41;5013106;28;20038;-58
2021/07/05 07:54:32;;;;;;;3.78;1.20;;;;;;;20.82;63.70;100848.06;5012599;28;20620;-59
2021/07/05 07:56:58;;;;;;;3.85;1.30;;;;;;;20.84;63.69;100845.28;5011648;28;20457;-62
2021/07/05 07:59:23;;;;;;;4.18;1.30;;;;;;;20.84;63.46;100838.16;5012082;28;20066;-58
2021/07/05 08:01:49;;;;;;;3.53;1.40;;;;;;;20.86;63.31;100834.53;5011384;28;20356;-58
2021/07/05 08:04:17;;;;;;;5.68;1.80;;;;;;;20.87;63.50;100831.75;5012257;28;20121;-59
2021/07/05 08:06:43;;;;;;;4.43;1.40;;;;;;;20.88;63.26;100830.75;5012156;28;20033;-58
2021/07/05 08:09:09;;;;;;;7.45;1.63;;;;;;;20.89;63.33;100829.78;5011563;28;20485;-58
2021/07/05 08:11:36;;;;;;;3.42;1.30;;;;;;;20.89;63.46;100831.59;5011970;28;20034;-58
2021/07/05 08:14:04;;;;;;;2.85;1.20;;;;;;;20.89;63.39;100828.94;5011728;28;20026;-58
2021/07/05 08:16:30;;;;;;;4.32;1.50;;;;;;;20.90;63.52;100830.59;5009779;28;20041;-58
2021/07/05 08:18:56;;;;;;;4.80;1.40;;;;;;;20.89;63.45;100835.06;5012126;28;20022;-61
2021/07/05 08:21:21;;;;;;;3.38;1.40;;;;;;;20.91;63.47;100843.72;5012122;28;20346;-60
2021/07/05 08:23:49;;;;;;;4.72;1.30;;;;;;;20.87;63.60;100844.13;5011316;28;20105;-59
2021/07/05 08:26:15;;;;;;;3.45;1.40;;;;;;;20.89;63.52;100847.50;5011790;28;20053;-58
2021/07/05 08:28:41;;;;;;;3.90;1.20;;;;;;;20.91;63.52;100854.31;5012185;28;20465;-59
2021/07/05 08:31:07;;;;;;;2.85;1.27;;;;;;;20.92;63.56;100855.97;5011751;28;20101;-59
2021/07/05 08:33:34;;;;;;;3.22;1.20;;;;;;;20.92;63.61;100850.69;5011838;28;20046;-59
2021/07/05 08:36:00;;;;;;;4.07;1.38;;;;;;;20.93;63.62;100862.09;5012135;28;20355;-58
2021/07/05 08:38:27;;;;;;;4.53;1.48;;;;;;;20.92;63.84;100853.34;5011410;28;20390;-58
2021/07/05 08:40:52;;;;;;;3.58;1.27;;;;;;;20.93;63.47;100851.50;5012245;28;20131;-58
2021/07/05 08:43:25;;;;;;;3.95;1.30;;;;;;;20.92;63.72;100849.81;5011614;28;20073;-57
2021/07/05 08:45:53;;;;;;;4.57;1.42;;;;;;;20.93;63.45;100849.69;5011908;28;20100;-58
2021/07/05 08:48:21;;;;;;;4.00;1.38;;;;;;;20.92;63.57;100849.81;5012050;28;20104;-57
2021/07/05 08:50:48;;;;;;;4.43;1.35;;;;;;;20.94;63.53;100850.53;5012175;28;20026;-56
2021/07/05 08:53:13;;;;;;;5.45;1.42;;;;;;;20.95;63.39;100855.69;5011499;28;20034;-57
2021/07/05 08:55:39;;;;;;;3.38;1.45;;;;;;;20.95;63.47;100853.06;5011663;28;20018;-57
2021/07/05 08:58:07;;;;;;;2.92;1.40;;;;;;;20.96;63.75;100853.88;5011894;28;20086;-58
2021/07/05 09:00:35;;;;;;;3.45;1.30;;;;;;;20.97;63.53;100847.59;5015362;28;20018;-57
2021/07/05 09:03:02;;;;;;;3.63;1.60;;;;;;;20.97;63.57;100845.78;5015587;28;20037;-57
2021/07/05 09:05:28;;;;;;;3.83;1.20;;;;;;;20.98;63.43;100844.81;5014413;28;20029;-57
2021/07/05 09:08:02;;;;;;;3.95;1.40;;;;;;;20.99;63.67;100843.81;5015660;28;20504;-57
2021/07/05 09:10:38;;;;;;;6.03;1.58;;;;;;;21.00;63.61;100844.69;5014901;28;20121;-57
2021/07/05 09:13:08;;;;;;;4.10;1.23;;;;;;;21.00;63.53;100842.84;5014630;28;20026;-57
2021/07/05 09:15:39;;;;;;;3.15;1.40;;;;;;;20.97;63.49;100844.97;5014955;28;20025;-58
2021/07/05 09:18:27;;;;;;;3.45;1.48;;;;;;;21.00;63.34;100852.63;5014940;28;20473;-56
2021/07/05 09:20:53;;;;;;;2.60;1.25;;;;;;;21.00;63.36;100847.31;5014183;28;20473;-56
2021/07/05 09:23:18;;;;;;;3.92;1.30;;;;;;;21.00;63.39;100850.81;5014948;28;20033;-56
2021/07/05 09:25:50;;;;;;;4.80;1.40;;;;;;;20.98;63.50;100842.16;5015020;28;20382;-57
2021/07/05 09:28:17;;;;;;;3.60;1.30;;;;;;;20.99;63.54;100851.75;5014175;28;20172;-57
2021/07/05 09:30:48;;;;;;;3.22;1.15;;;;;;;20.97;63.42;100853.72;5014976;28;20097;-57
2021/07/05 09:33:31;;;;;;;3.95;1.50;;;;;;;21.00;63.29;100858.75;5013890;28;20022;-57
2021/07/05 09:36:03;;;;;;;3.47;1.33;;;;;;;20.99;63.31;100858.88;5015016;28;20037;-57
2021/07/05 09:38:41;;;;;;;3.42;1.20;;;;;;;20.99;63.47;100859.72;5014420;28;20025;-57
2021/07/05 09:41:34;;;;;;;3.60;1.60;;;;;;;21.00;63.63;100858.75;5013934;28;20367;-56
2021/07/05 09:44:02;;;;;;;3.35;1.33;;;;;;;20.96;63.34;100862.66;5014596;28;20033;-57
2021/07/05 09:46:43;;;;;;;3.80;1.30;;;;;;;20.99;63.35;100862.38;5014336;28;20030;-56
2021/07/05 09:49:28;;;;;;;3.40;1.30;;;;;;;20.98;63.35;100860.72;5013448;28;20034;-57
2021/07/05 09:52:08;;;;;;;4.15;1.30;;;;;;;20.99;63.37;100866.84;5014397;28;20125;-58
2021/07/05 09:54:34;;;;;;;4.38;1.50;;;;;;;20.97;63.45;100861.69;5013383;28;20029;-55
2021/07/05 09:57:00;;;;;;;4.80;1.25;;;;;;;20.97;63.37;100859.03;5014490;28;20033;-56
2021/07/05 09:59:27;;;;;;;2.75;1.25;;;;;;;20.97;63.54;100866.16;5014318;28;20034;-57
2021/07/05 10:01:55;;;;;;;4.45;1.50;;;;;;;20.96;63.33;100862.66;5013585;28;20216;-57
2021/07/05 10:04:27;;;;;;;3.80;1.30;;;;;;;20.97;63.43;100860.84;5014220;28;20037;-57
2021/07/05 10:06:55;;;;;;;3.25;1.65;;;;;;;20.95;63.36;100853.06;5014423;28;20131;-57
2021/07/05 10:09:40;;;;;;;3.55;1.15;;;;;;;20.97;63.46;100856.38;5013215;28;20025;-58
2021/07/05 10:12:26;;;;;;;3.95;1.42;;;;;;;21.00;63.55;100855.28;5014392;28;20026;-58
2021/07/05 10:15:08;;;;;;;3.60;1.40;;;;;;;20.97;63.45;100848.44;5014369;28;20021;-58
2021/07/05 10:17:43;;;;;;;3.17;1.52;;;;;;;20.96;63.45;100854.69;5012932;28;20098;-57
2021/07/05 10:20:21;;;;;;;5.55;1.40;;;;;;;20.94;63.49;100854.03;5013898;28;20477;-59
2021/07/05 10:22:48;;;;;;;5.50;1.55;;;;;;;20.93;63.46;100849.69;5013478;28;20030;-58
2021/07/05 10:25:14;;;;;;;4.07;1.50;;;;;;;20.95;63.31;100857.50;5013962;28;20026;-58
2021/07/05 10:27:40;;;;;;;6.22;1.45;;;;;;;20.97;63.60;100856.38;5014820;28;20032;-60
2021/07/05 10:30:14;;;;;;;5.57;1.73;;;;;;;21.01;63.57;100864.88;5014552;28;20030;-60
2021/07/05 10:32:41;;;;;;;4.18;1.30;;;;;;;21.00;63.55;100849.97;5013948;28;20022;-59
2021/07/05 10:35:15;;;;;;;4.28;1.45;;;;;;;21.02;63.42;100848.84;5013497;28;20037;-59
2021/07/05 10:38:11;;;;;;;4.57;1.38;;;;;;;21.03;63.50;100841.75;5012907;28;20330;-59
2021/07/05 10:40:40;;;;;;;5.22;1.52;;;;;;;21.05;63.64;100838.94;5012155;28;20033;-58
2021/07/05 10:43:07;;;;;;;3.63;1.35;;;;;;;21.06;63.58;100840.59;5013813;28;20036;-59
2021/07/05 10:46:09;;;;;;;3.92;1.55;;;;;;;21.06;63.63;100840.59;5012068;28;20046;-60
2021/07/05 10:48:44;;;;;;;4.47;1.42;;;;;;;21.08;63.61;100846.59;5019543;28;20038;-56
2021/07/05 10:51:11;;;;;;;6.18;1.75;;;;;;;21.10;63.69;100850.78;5013348;28;20148;-59
2021/07/05 10:53:44;;;;;;;5.82;1.67;;;;;;;21.12;63.53;100840.03;5013502;28;20022;-59
2021/07/05 10:56:29;;;;;;;6.38;1.65;;;;;;;21.13;63.45;100849.66;5013387;28;20029;-58
2021/07/05 10:58:55;;;;;;;3.63;1.20;;;;;;;21.14;63.38;100840.72;5012722;28;20084;-61
2021/07/05 11:01:42;;;;;;;3.33;1.15;;;;;;;21.16;63.54;100836.13;5013162;28;20137;-58
2021/07/05 11:04:19;;;;;;;3.78;1.40;;;;;;;21.18;63.55;100831.50;5013142;28;20029;-59
2021/07/05 11:06:46;;;;;;;4.35;1.30;;;;;;;21.20;63.72;100833.03;5012537;28;20029;-59
2021/07/05 11:09:17;;;;;;;4.22;1.60;;;;;;;21.21;63.44;100823.25;5013494;28;20021;-58
2021/07/05 11:11:58;;;;;;;4.47;1.40;;;;;;;21.22;63.35;100830.25;5012379;28;20079;-58
2021/07/05 11:14:39;;;;;;;6.53;1.50;;;;;;;21.24;63.63;100822.97;5013107;28;20033;-60
2021/07/05 11:17:14;;;;;;;2.83;1.30;;;;;;;21.27;63.27;100822.69;5013446;28;20036;-59
2021/07/05 11:19:55;;;;;;;4.55;1.30;;;;;;;21.29;63.25;100825.19;5012643;28;20033;-60
2021/07/05 11:22:21;;;;;;;2.10;1.10;;;;;;;21.30;63.10;100827.69;5012606;28;20044;-58
2021/07/05 11:24:52;;;;;;;3.25;1.20;;;;;;;21.30;63.07;100818.88;5013381;28;20030;-59
2021/07/05 11:27:29;;;;;;;4.15;1.38;;;;;;;21.31;62.89;100817.91;5012302;28;20030;-59
2021/07/05 11:30:09;;;;;;;4.53;1.40;;;;;;;21.32;62.99;100819.59;5013125;28;20095;-58